Terminal Aerodrome Forecast
Issued by NWS

Home | Current Version | Previous Version | Text Only | Print | Product List | Glossary On
Versions: 1 2 3 4 5 6 7 8 9 10 11 12 13 14 15
152
FTUS45 KRIW 282323
TAFJAC
TAF
KJAC 282323Z 2900/2924 27010G18KT P6SM FEW090
     FM290200 21006KT P6SM FEW090
     FM290600 VRB05KT P6SM SKC
     FM291800 VRB05KT P6SM SCT070
     FM292000 18010KT P6SM VCTS SCT060CB BKN090
      AMD LTD TO CLD VIS AND WIND=

USA.gov is the U.S. government's official web portal to all federal, state and local government web resources and services.